Time;durP1;ratioP1;P1;durP2;ratioP2;P2;SDS_P1;SDS_P2;PMS_P1;PMS_P2;Temp;Humidity;BMP_temperature;BMP_pressure;BME280_temperature;BME280_humidity;BME280_pressure;Samples;Min_cycle;Max_cycle;Signal;HPM_P1;HPM_P2
2022/07/01 00:02:24;;;;;;;;;0.25;0.25;;;;;18.11;58.29;101265.47;5102170;27;50773;-72
2022/07/01 00:04:50;;;;;;;;;0.25;0.25;;;;;18.07;58.43;101259.34;5103025;27;45307;-73
2022/07/01 00:07:16;;;;;;;;;0.75;0.00;;;;;18.04;58.42;101255.94;5102003;27;45321;-73
2022/07/01 00:09:41;;;;;;;;;0.75;0.75;;;;;18.05;58.56;101263.09;5102784;27;45312;-72
2022/07/01 00:12:07;;;;;;;;;0.75;0.75;;;;;17.99;58.55;101260.75;5102855;27;45463;-73
2022/07/01 00:14:32;;;;;;;;;0.75;0.75;;;;;17.99;58.35;101266.13;5102696;27;45753;-72
2022/07/01 00:16:58;;;;;;;;;0.00;0.00;;;;;17.93;58.97;101275.47;5101715;27;45218;-73
2022/07/01 00:19:24;;;;;;;;;0.00;0.00;;;;;17.85;58.41;101264.16;5099443;27;45389;-73
2022/07/01 00:21:50;;;;;;;;;0.00;0.00;;;;;17.80;58.28;101256.31;5096614;27;45427;-72
2022/07/01 00:24:15;;;;;;;;;0.00;0.00;;;;;17.82;58.70;101258.94;5098448;27;45727;-73
2022/07/01 00:26:40;;;;;;;;;0.00;0.00;;;;;17.89;58.96;101277.47;5101691;27;45312;-73
2022/07/01 00:29:06;;;;;;;;;0.00;0.00;;;;;17.91;59.04;101274.69;5100039;27;45660;-73
2022/07/01 00:31:31;;;;;;;;;1.00;1.00;;;;;17.88;58.33;101281.09;5107359;27;45476;-72
2022/07/01 00:33:56;;;;;;;;;0.00;0.00;;;;;17.83;58.76;101268.78;5101030;27;46656;-73
2022/07/01 00:36:22;;;;;;;;;0.50;0.00;;;;;17.89;58.85;101284.66;5101658;27;45316;-72
2022/07/01 00:38:47;;;;;;;;;0.00;0.00;;;;;17.86;58.32;101287.50;5101596;27;45477;-73
2022/07/01 00:41:12;;;;;;;;;0.00;0.00;;;;;17.76;58.55;101277.22;5102208;27;45412;-72
2022/07/01 00:43:39;;;;;;;;;0.50;0.50;;;;;17.73;58.69;101282.78;5102265;27;45349;-72
2022/07/01 00:46:05;;;;;;;;;0.25;0.25;;;;;17.67;58.40;101275.00;5093799;27;45485;-73
2022/07/01 00:48:33;;;;;;;;;0.00;0.00;;;;;17.73;58.59;101279.22;5100997;27;47439;-73
2022/07/01 00:50:58;;;;;;;;;0.50;0.50;;;;;17.68;58.74;101278.59;5102266;27;45407;-73
2022/07/01 00:53:24;;;;;;;;;1.00;1.00;;;;;17.62;58.95;101279.78;5101930;27;45717;-72
2022/07/01 00:55:50;;;;;;;;;1.25;1.25;;;;;17.66;59.08;101283.16;5101540;27;45311;-73
2022/07/01 00:58:16;;;;;;;;;0.25;0.25;;;;;17.59;58.73;101274.53;5101723;27;45464;-73
2022/07/01 01:00:41;;;;;;;;;0.25;0.25;;;;;17.62;59.26;101279.78;5102115;27;45435;-72
2022/07/01 01:03:10;;;;;;;;;1.25;0.50;;;;;17.60;58.87;101277.16;5101933;27;45378;-72
2022/07/01 01:05:36;;;;;;;;;0.50;0.00;;;;;17.62;58.76;101282.47;5100312;27;45447;-72
2022/07/01 01:08:01;;;;;;;;;1.25;0.00;;;;;17.65;59.40;101285.00;5100961;27;45231;-72
2022/07/01 01:10:27;;;;;;;;;3.25;0.50;;;;;17.64;59.16;101302.19;5102044;27;45379;-73
2022/07/01 01:12:54;;;;;;;;;0.00;0.00;;;;;17.65;59.23;101295.81;5100441;27;45526;-72
2022/07/01 01:15:20;;;;;;;;;0.25;0.25;;;;;17.57;59.17;101292.63;5100340;27;45260;-72
2022/07/01 01:17:46;;;;;;;;;2.00;1.00;;;;;17.62;59.34;101300.50;5101809;27;46396;-72
2022/07/01 01:20:19;;;;;;;;;0.50;0.50;;;;;17.64;59.06;101307.59;5099585;27;45408;-72
2022/07/01 01:22:46;;;;;;;;;1.00;1.00;;;;;17.60;59.10;101311.38;5100731;27;45359;-72
2022/07/01 01:25:12;;;;;;;;;0.00;0.00;;;;;17.62;59.67;101311.31;5101373;27;45455;-72
2022/07/01 01:27:37;;;;;;;;;1.00;0.25;;;;;17.51;59.22;101304.66;5101169;27;45511;-72
2022/07/01 01:30:08;;;;;;;;;1.00;1.00;;;;;17.54;59.10;101322.50;5101119;27;45447;-72
2022/07/01 01:32:33;;;;;;;;;0.50;0.50;;;;;17.52;59.41;101316.31;5100328;27;45326;-72
2022/07/01 01:34:59;;;;;;;;;1.00;0.75;;;;;17.36;59.22;101305.47;5101467;27;45416;-73
2022/07/01 01:37:25;;;;;;;;;1.00;1.00;;;;;17.36;59.61;101306.31;5100988;27;46739;-73
2022/07/01 01:39:50;;;;;;;;;1.00;1.00;;;;;17.39;59.51;101326.84;5101504;27;45282;-72
2022/07/01 01:42:15;;;;;;;;;1.00;1.00;;;;;17.29;59.81;101307.59;5100223;27;45527;-72
2022/07/01 01:44:41;;;;;;;;;1.00;1.00;;;;;17.36;59.82;101330.59;5100894;27;45499;-72
2022/07/01 01:47:06;;;;;;;;;1.50;1.50;;;;;17.29;59.90;101321.09;5096396;27;46375;-73
2022/07/01 01:49:32;;;;;;;;;1.00;1.00;;;;;17.29;60.14;101314.78;5101396;27;45288;-72
2022/07/01 01:51:59;;;;;;;;;1.00;1.00;;;;;17.25;59.90;101322.19;5099134;27;45478;-73
2022/07/01 01:54:25;;;;;;;;;1.00;1.00;;;;;17.26;60.23;101314.94;5101105;27;45583;-73
2022/07/01 01:56:50;;;;;;;;;1.00;1.00;;;;;17.27;60.06;101317.56;5100862;27;45456;-72
2022/07/01 01:59:15;;;;;;;;;0.00;0.00;;;;;17.19;60.32;101319.78;5100811;27;50110;-72
2022/07/01 02:01:41;;;;;;;;;1.50;1.50;;;;;17.23;60.54;101333.06;5099972;27;45212;-73
2022/07/01 02:04:06;;;;;;;;;2.25;1.00;;;;;17.20;60.19;101327.81;5101012;27;45347;-72
2022/07/01 02:06:32;;;;;;;;;2.25;2.00;;;;;17.08;60.43;101322.19;5100750;27;45390;-72
2022/07/01 02:08:57;;;;;;;;;2.50;2.00;;;;;17.09;60.72;101335.59;5101227;27;45207;-72
2022/07/01 02:11:22;;;;;;;;;1.25;1.00;;;;;17.07;60.29;101329.38;5100030;27;45594;-73
2022/07/01 02:13:48;;;;;;;;;1.00;1.00;;;;;17.08;60.43;101331.13;5100538;27;45186;-73
2022/07/01 02:16:13;;;;;;;;;1.25;1.25;;;;;17.09;60.66;101332.88;5100696;27;45363;-72
2022/07/01 02:18:38;;;;;;;;;1.00;0.25;;;;;16.96;60.49;101313.75;5101056;27;45258;-72
2022/07/01 02:21:04;;;;;;;;;1.00;1.00;;;;;17.10;60.52;101334.63;5099657;27;45356;-73
2022/07/01 02:23:29;;;;;;;;;1.00;1.00;;;;;17.10;60.80;101342.72;5099519;27;47673;-73
2022/07/01 02:25:55;;;;;;;;;2.75;1.25;;;;;17.12;60.67;101348.91;5100488;27;45326;-72
2022/07/01 02:28:20;;;;;;;;;1.00;1.00;;;;;17.09;60.62;101349.06;5100460;27;45634;-72
2022/07/01 02:30:46;;;;;;;;;2.00;1.00;;;;;17.08;60.55;101346.44;5100674;27;45368;-72
2022/07/01 02:33:11;;;;;;;;;1.00;1.00;;;;;17.09;60.90;101350.88;5098169;27;46599;-73
2022/07/01 02:35:39;;;;;;;;;1.50;1.50;;;;;17.07;60.52;101350.94;5100311;27;52996;-73
2022/07/01 02:38:06;;;;;;;;;2.75;1.75;;;;;16.95;60.65;101341.66;5098962;27;45794;-72
2022/07/01 02:40:33;;;;;;;;;2.00;2.00;;;;;17.01;60.50;101346.75;5100587;27;45391;-72
2022/07/01 02:42:59;;;;;;;;;2.00;0.00;;;;;17.03;60.60;101352.06;5099132;27;46783;-73
2022/07/01 02:45:25;;;;;;;;;1.25;1.25;;;;;16.99;61.04;101354.06;5098565;27;45673;-73
2022/07/01 02:47:50;;;;;;;;;2.00;2.00;;;;;17.02;61.06;101366.50;5088752;27;45324;-73
2022/07/01 02:50:18;;;;;;;;;0.25;0.25;;;;;16.92;60.52;101346.31;5100451;27;45959;-72
2022/07/01 02:52:44;;;;;;;;;3.00;2.25;;;;;17.03;60.73;101365.56;5097840;27;45834;-72
2022/07/01 02:55:12;;;;;;;;;2.00;2.00;;;;;16.95;61.01;101355.13;5099944;27;45324;-73
2022/07/01 02:57:38;;;;;;;;;2.75;1.25;;;;;16.95;60.99;101348.88;5100675;27;45296;-73
2022/07/01 03:00:05;;;;;;;;;1.50;1.50;;;;;16.94;60.85;101364.19;5100264;27;45866;-72
2022/07/01 03:02:32;;;;;;;;;2.00;1.25;;;;;16.94;60.92;101369.59;5100928;27;45471;-72
2022/07/01 03:04:57;;;;;;;;;2.00;2.00;;;;;16.94;61.12;101364.19;5103440;27;46384;-73
2022/07/01 03:07:22;;;;;;;;;3.25;1.75;;;;;16.92;60.78;101371.47;5104060;27;45432;-72
2022/07/01 03:09:48;;;;;;;;;3.75;2.00;;;;;16.88;60.92;101367.19;5103725;27;45559;-72
2022/07/01 03:12:25;;;;;;;;;2.00;2.00;;;;;16.84;60.86;101363.75;5102388;27;45320;-72
2022/07/01 03:15:05;;;;;;;;;1.00;1.00;;;;;16.85;61.09;101368.19;5103129;27;46162;-72
2022/07/01 03:17:33;;;;;;;;;3.00;2.00;;;;;16.81;61.14;101360.31;5103514;27;45381;-72
2022/07/01 03:20:00;;;;;;;;;2.00;2.00;;;;;16.87;61.02;101365.41;5094138;27;45421;-72
2022/07/01 03:22:29;;;;;;;;;2.00;2.00;;;;;16.79;60.94;101357.69;5102773;27;45562;-73
2022/07/01 03:24:54;;;;;;;;;3.25;2.50;;;;;16.85;61.27;101376.28;5096566;27;47132;-72
2022/07/01 03:27:20;;;;;;;;;1.75;1.75;;;;;16.85;60.99;101378.09;5097808;27;45135;-72
2022/07/01 03:29:46;;;;;;;;;1.25;1.00;;;;;16.80;61.21;101370.19;5095360;27;45365;-72
2022/07/01 03:32:12;;;;;;;;;1.50;1.00;;;;;16.83;61.41;101377.28;5097218;27;45326;-73
2022/07/01 03:34:38;;;;;;;;;2.50;1.00;;;;;16.83;61.18;101378.16;5102846;27;46645;-72
2022/07/01 03:37:05;;;;;;;;;2.00;1.00;;;;;16.83;61.13;101379.97;5103320;27;45717;-72
2022/07/01 03:39:30;;;;;;;;;1.00;1.00;;;;;16.77;61.09;101377.56;5103666;27;45598;-72
2022/07/01 03:41:56;;;;;;;;;2.00;2.00;;;;;16.75;61.13;101385.72;5102263;27;45759;-72
2022/07/01 03:44:21;;;;;;;;;1.00;1.00;;;;;16.75;61.31;101384.88;5102840;27;45521;-73
2022/07/01 03:46:46;;;;;;;;;1.75;1.75;;;;;16.72;60.87;101385.88;5094683;27;45354;-72
2022/07/01 03:49:12;;;;;;;;;2.00;2.00;;;;;16.79;61.27;101394.53;5097061;27;45476;-72
2022/07/01 03:51:37;;;;;;;;;1.00;1.00;;;;;16.77;60.93;101394.66;5102636;27;45203;-73
2022/07/01 03:56:46;;;;;;;;;2.25;2.00;;;;;16.78;61.01;101401.75;5103212;27;45317;-72
2022/07/01 03:59:12;;;;;;;;;3.00;2.00;;;;;16.77;61.19;101402.72;5101595;27;45334;-72
2022/07/01 04:01:37;;;;;;;;;4.00;2.00;;;;;16.76;61.21;101402.81;5101944;27;51730;-72
2022/07/01 04:04:02;;;;;;;;;3.50;3.50;;;;;16.74;61.23;101399.28;5102346;27;45451;-72
2022/07/01 04:06:28;;;;;;;;;3.00;2.00;;;;;16.73;61.22;101411.03;5102956;27;45420;-72
2022/07/01 04:08:53;;;;;;;;;3.00;3.00;;;;;16.67;61.16;101401.41;5103156;27;45366;-72
2022/07/01 04:11:19;;;;;;;;;3.25;2.00;;;;;16.71;61.15;101415.63;5102642;27;45295;-72
2022/07/01 04:13:50;;;;;;;;;3.00;2.50;;;;;16.68;61.09;101414.81;5100111;27;46047;-72
2022/07/01 04:16:16;;;;;;;;;3.75;3.75;;;;;16.64;61.02;101407.81;5102528;27;45491;-73
2022/07/01 04:18:42;;;;;;;;;6.25;4.00;;;;;16.70;60.65;101411.16;5102677;27;45444;-72
2022/07/01 04:23:52;;;;;;;;;4.00;3.00;;;;;16.77;60.82;101412.63;5101345;27;45785;-73
2022/07/01 04:26:17;;;;;;;;;3.25;3.00;;;;;16.75;60.60;101415.38;5102592;27;45259;-72
2022/07/01 04:28:42;;;;;;;;;6.00;4.00;;;;;16.82;60.42;101418.66;5102467;27;45238;-72
2022/07/01 04:31:08;;;;;;;;;3.00;3.00;;;;;16.79;60.86;101414.31;5101201;27;45361;-72
2022/07/01 04:33:33;;;;;;;;;4.50;2.75;;;;;16.86;60.61;101428.41;5101399;27;45480;-72
2022/07/01 04:35:59;;;;;;;;;5.50;4.25;;;;;16.85;60.55;101427.50;5102293;27;45773;-72
2022/07/01 04:38:24;;;;;;;;;2.25;2.25;;;;;16.87;60.78;101429.28;5102633;27;45282;-72
2022/07/01 04:43:33;;;;;;;;;1.75;1.75;;;;;16.72;60.59;101401.19;5098957;27;45755;-72
2022/07/01 04:45:58;;;;;;;;;2.75;2.75;;;;;16.89;60.74;101424.66;5094180;27;55441;-72
2022/07/01 04:48:24;;;;;;;;;3.50;3.00;;;;;16.92;60.68;101438.00;5098095;27;45172;-75
2022/07/01 04:50:50;;;;;;;;;3.00;2.25;;;;;16.89;60.51;101428.25;5100364;27;46153;-75
2022/07/01 04:53:15;;;;;;;;;2.00;2.00;;;;;16.91;60.32;101430.88;5097854;27;47586;-72
2022/07/01 04:55:41;;;;;;;;;3.00;3.00;;;;;16.95;60.56;101441.44;5100824;27;45507;-72
2022/07/01 04:58:06;;;;;;;;;2.00;2.00;;;;;16.93;60.47;101437.94;5102104;27;45538;-73
2022/07/01 05:00:32;;;;;;;;;2.75;1.00;;;;;16.89;61.07;101432.75;5083501;27;45509;-72
2022/07/01 05:02:57;;;;;;;;;3.00;2.75;;;;;16.85;60.68;101432.91;5098053;27;47882;-73
2022/07/01 05:05:23;;;;;;;;;1.00;1.00;;;;;16.93;60.88;101443.34;5098556;27;45441;-72
2022/07/01 05:07:48;;;;;;;;;3.00;3.00;;;;;16.92;60.26;101444.28;5101036;27;45524;-73
2022/07/01 05:10:14;;;;;;;;;2.25;2.25;;;;;16.85;60.72;101440.13;5101056;27;45312;-73
2022/07/01 05:12:40;;;;;;;;;4.25;3.00;;;;;16.90;60.66;101450.69;5100768;27;45382;-73
2022/07/01 05:15:06;;;;;;;;;3.50;3.00;;;;;16.88;60.67;101447.22;5101620;27;45451;-73
2022/07/01 05:23:01;;;;;;;;;1.75;1.75;;;;;16.88;60.53;101461.56;5092183;27;45231;-72
2022/07/01 05:25:27;;;;;;;;;2.75;2.00;;;;;16.89;60.82;101460.63;5101510;27;45289;-72
2022/07/01 05:27:54;;;;;;;;;1.00;1.00;;;;;16.87;60.89;101453.53;5101498;27;45238;-72
2022/07/01 05:30:22;;;;;;;;;1.50;1.00;;;;;16.90;60.65;101458.78;5096909;27;45476;-72
2022/07/01 05:32:48;;;;;;;;;3.00;2.00;;;;;16.91;60.84;101455.16;5100971;27;46285;-72
2022/07/01 05:35:14;;;;;;;;;2.00;2.00;;;;;16.89;60.41;101446.25;5099824;27;45442;-72
2022/07/01 05:37:41;;;;;;;;;2.75;2.00;;;;;16.88;60.40;101444.50;5097365;27;45275;-72
2022/07/01 05:40:07;;;;;;;;;1.50;1.50;;;;;16.94;60.15;101455.00;5098517;27;45526;-71
2022/07/01 05:42:33;;;;;;;;;1.00;1.00;;;;;16.94;60.29;101463.06;5094338;27;45498;-72
2022/07/01 05:44:58;;;;;;;;;2.00;2.00;;;;;16.94;60.47;101461.28;5096995;27;45485;-72
2022/07/01 05:47:24;;;;;;;;;1.25;1.25;;;;;16.97;60.01;101463.84;5094328;27;45380;-72
2022/07/01 05:49:49;;;;;;;;;2.00;1.00;;;;;16.86;59.75;101441.88;5103120;27;45623;-72
2022/07/01 05:52:14;;;;;;;;;3.00;2.00;;;;;16.93;59.75;101459.50;5098598;27;45708;-72
2022/07/01 05:54:40;;;;;;;;;1.50;0.50;;;;;16.97;59.65;101466.53;5100535;27;45728;-72
2022/07/01 05:57:05;;;;;;;;;2.25;1.50;;;;;16.91;59.89;101449.75;5100093;27;45543;-72
2022/07/01 05:59:30;;;;;;;;;3.00;1.00;;;;;16.96;59.54;101461.22;5099041;27;45360;-72
2022/07/01 06:01:56;;;;;;;;;0.25;0.25;;;;;16.97;59.69;101462.94;5092639;27;46262;-73
2022/07/01 06:04:21;;;;;;;;;1.00;1.00;;;;;16.93;59.59;101458.66;5097940;27;45535;-73
2022/07/01 06:06:46;;;;;;;;;2.00;1.00;;;;;17.01;58.92;101464.56;5097504;27;45419;-72
2022/07/01 06:09:12;;;;;;;;;0.00;0.00;;;;;17.05;58.98;101476.94;5097522;27;45305;-67
2022/07/01 06:11:37;;;;;;;;;1.75;1.75;;;;;17.04;58.61;101469.81;5100577;27;45323;-72
2022/07/01 06:14:02;;;;;;;;;1.00;1.00;;;;;17.02;58.89;101474.38;5100558;27;45424;-72
2022/07/01 06:16:28;;;;;;;;;1.50;0.50;;;;;17.06;58.74;101480.50;5099295;27;45359;-72
2022/07/01 06:18:53;;;;;;;;;0.00;0.00;;;;;16.97;58.59;101454.84;5099400;27;45484;-72
2022/07/01 06:21:18;;;;;;;;;0.75;0.75;;;;;17.04;58.77;101473.38;5096782;27;51365;-73
2022/07/01 06:23:45;;;;;;;;;1.00;1.00;;;;;16.98;58.50;101462.88;5100798;27;45406;-72
2022/07/01 06:26:10;;;;;;;;;0.00;0.00;;;;;17.11;57.91;101476.66;5100912;27;45439;-73
2022/07/01 06:28:36;;;;;;;;;0.00;0.00;;;;;17.12;58.64;101477.50;5099212;27;45660;-72
2022/07/01 06:31:01;;;;;;;;;1.00;1.00;;;;;17.11;58.46;101478.47;5100021;27;47163;-73
2022/07/01 06:33:29;;;;;;;;;0.75;0.75;;;;;17.10;58.45;101471.31;5100667;27;45269;-73
2022/07/01 06:35:55;;;;;;;;;0.00;0.00;;;;;17.14;58.22;101472.91;5100269;27;45402;-73
2022/07/01 06:38:20;;;;;;;;;0.00;0.00;;;;;17.19;58.01;101478.94;5100100;27;45312;-73
2022/07/01 06:41:26;;;;;;;;;1.75;1.75;;;;;17.20;58.21;101478.88;5100497;27;46105;-73
2022/07/01 06:43:31;;;;;;;;;1.00;1.00;;;;;17.25;57.60;101483.19;5100179;27;45580;-72
2022/07/01 06:45:56;;;;;;;;;1.00;1.00;;;;;17.29;57.68;101488.38;5099314;27;45372;-72
2022/07/01 06:48:22;;;;;;;;;1.00;1.00;;;;;17.27;58.12;101481.28;5093708;27;45369;-72
2022/07/01 06:50:47;;;;;;;;;1.25;0.50;;;;;17.33;57.85;101489.97;5099631;27;62911;-72
2022/07/01 06:53:12;;;;;;;;;1.00;1.00;;;;;17.35;58.00;101484.50;5100384;27;45400;-72
2022/07/01 06:55:37;;;;;;;;;1.00;1.00;;;;;17.37;57.94;101491.59;5100733;27;45476;-72
2022/07/01 06:58:04;;;;;;;;;1.00;0.00;;;;;17.46;57.83;101505.53;5100284;27;45474;-73
2022/07/01 07:00:29;;;;;;;;;1.25;1.25;;;;;17.47;57.66;101491.09;5098822;27;46076;-73
2022/07/01 07:02:54;;;;;;;;;0.50;0.50;;;;;17.47;57.75;101494.66;5099985;27;45443;-73
2022/07/01 07:05:20;;;;;;;;;1.00;1.00;;;;;17.45;57.75;101491.19;5099776;27;48514;-73
2022/07/01 07:07:45;;;;;;;;;0.00;0.00;;;;;17.40;57.75;101480.59;5100009;27;45474;-72
2022/07/01 07:10:10;;;;;;;;;0.50;0.50;;;;;17.50;56.52;101485.56;5083968;27;56470;-73
2022/07/01 07:12:35;;;;;;;;;1.25;1.00;;;;;17.58;56.54;101489.63;5099510;27;52625;-73
2022/07/01 07:15:01;;;;;;;;;0.00;0.00;;;;;17.60;56.18;101495.81;5100324;27;45258;-73
2022/07/01 07:17:26;;;;;;;;;0.00;0.00;;;;;17.58;55.73;101486.06;5100136;27;45358;-73
2022/07/01 07:19:52;;;;;;;;;0.00;0.00;;;;;17.66;55.64;101491.94;5091664;27;45309;-72
2022/07/01 07:22:18;;;;;;;;;0.25;0.25;;;;;17.71;55.61;101500.69;5099639;27;45222;-72
2022/07/01 07:24:43;;;;;;;;;0.75;0.25;;;;;17.76;55.11;101501.34;5100408;27;45510;-70
2022/07/01 07:27:09;;;;;;;;;0.00;0.00;;;;;17.70;55.51;101485.44;5100162;27;45446;-70
2022/07/01 07:29:34;;;;;;;;;0.25;0.00;;;;;17.80;55.39;101499.34;5093276;27;46249;-73
2022/07/01 07:31:59;;;;;;;;;0.25;0.25;;;;;17.82;54.82;101489.34;5099010;27;45230;-73
2022/07/01 07:34:25;;;;;;;;;1.25;0.00;;;;;17.88;54.52;101505.25;5098834;27;45481;-72
2022/07/01 07:36:50;;;;;;;;;0.25;0.00;;;;;17.93;54.61;101496.94;5100091;27;45449;-72
2022/07/01 07:39:15;;;;;;;;;0.75;0.75;;;;;17.85;54.64;101480.22;5099839;27;46117;-72
2022/07/01 07:41:41;;;;;;;;;0.75;0.00;;;;;17.93;54.08;101486.13;5099348;27;45310;-73
2022/07/01 07:44:06;;;;;;;;;0.75;0.75;;;;;18.00;54.10;101484.00;5099669;27;45252;-72
2022/07/01 07:46:31;;;;;;;;;0.75;0.00;;;;;18.08;53.56;101492.56;5082195;27;45458;-73
2022/07/01 07:48:57;;;;;;;;;1.50;0.00;;;;;18.20;53.91;101501.88;5093780;27;46439;-73
2022/07/01 07:51:22;;;;;;;;;0.25;0.25;;;;;18.15;53.49;101486.75;5103127;27;45354;-73
2022/07/01 07:53:48;;;;;;;;;0.00;0.00;;;;;18.23;53.66;101483.66;5103277;27;45449;-73
2022/07/01 07:56:13;;;;;;;;;0.50;0.00;;;;;18.37;53.39;101500.97;5101257;27;45405;-73
2022/07/01 07:58:41;;;;;;;;;0.00;0.00;;;;;18.40;52.60;101496.28;5101744;27;47393;-73
2022/07/01 08:01:07;;;;;;;;;0.00;0.00;;;;;18.43;52.54;101488.00;5090626;27;45410;-73
2022/07/01 08:03:34;;;;;;;;;0.00;0.00;;;;;18.53;51.97;101504.59;5103068;27;45203;-72
2022/07/01 08:05:59;;;;;;;;;0.00;0.00;;;;;18.62;51.43;101504.09;5103356;27;45218;-73
2022/07/01 08:52:50;;;;;;;;;0.00;0.00;;;;;18.35;51.14;101538.03;5073203;28;45432;-69
2022/07/01 08:55:16;;;;;;;;;0.00;0.00;;;;;18.45;50.80;101529.34;5047784;28;45342;-70
2022/07/01 08:57:41;;;;;;;;;0.00;0.00;;;;;18.56;50.92;101508.97;5044542;28;45636;-70
2022/07/01 09:00:08;;;;;;;;;0.00;0.00;;;;;18.66;50.50;101521.91;5047282;28;45234;-70
2022/07/01 09:02:50;;;;;;;;;0.00;0.00;;;;;18.86;50.50;101533.50;5042623;28;45394;-70
2022/07/01 09:05:16;;;;;;;;;0.00;0.00;;;;;18.84;50.55;101513.78;5043795;28;45453;-69
2022/07/01 09:07:42;;;;;;;;;0.00;0.00;;;;;19.03;50.22;101527.19;5049557;28;45300;-70
2022/07/01 09:10:17;;;;;;;;;0.00;0.00;;;;;19.10;50.22;101525.88;5048882;28;45356;-69
2022/07/01 09:12:43;;;;;;;;;0.00;0.00;;;;;19.16;50.24;101514.72;5054647;28;47452;-69
2022/07/01 09:15:27;;;;;;;;;0.50;0.50;;;;;19.25;49.66;101524.13;5043607;28;45623;-72
2022/07/01 09:17:55;;;;;;;;;0.25;0.00;;;;;19.37;50.42;101533.41;5039659;28;45453;-72
2022/07/01 09:20:31;;;;;;;;;1.50;0.00;;;;;19.38;49.48;101524.31;5039589;28;45346;-72
2022/07/01 09:23:07;;;;;;;;;1.00;0.00;;;;;19.49;49.15;101540.81;5043909;28;45416;-72
2022/07/01 09:25:37;;;;;;;;;0.00;0.00;;;;;19.55;49.33;101542.31;5036807;28;45460;-72
2022/07/01 09:28:08;;;;;;;;;0.75;0.00;;;;;19.53;48.59;101531.56;5048872;28;45268;-72
2022/07/01 09:30:34;;;;;;;;;0.25;0.00;;;;;19.63;48.90;101543.59;5041738;28;45406;-72
2022/07/01 09:33:08;;;;;;;;;1.00;0.00;;;;;19.66;49.40;101550.66;5038646;28;46247;-72
2022/07/01 09:35:36;;;;;;;;;0.00;0.00;;;;;19.54;49.52;101524.31;5046878;28;45394;-72
2022/07/01 09:38:01;;;;;;;;;0.50;0.00;;;;;19.69;48.87;101544.22;5049108;28;45334;-72
2022/07/01 09:40:55;;;;;;;;;0.00;0.00;;;;;19.76;49.07;101543.81;5044124;28;45452;-72
2022/07/01 09:43:20;;;;;;;;;0.75;0.00;;;;;19.79;48.56;101542.75;5048739;28;45470;-72
2022/07/01 09:45:54;;;;;;;;;0.00;0.00;;;;;19.78;48.73;101539.16;5052932;28;45398;-72
2022/07/01 09:48:24;;;;;;;;;0.00;0.00;;;;;19.83;48.42;101528.06;5053744;28;45334;-72
2022/07/01 09:50:50;;;;;;;;;1.25;0.00;;;;;19.91;48.24;101547.47;5046338;28;45501;-72
2022/07/01 09:53:15;;;;;;;;;0.00;0.00;;;;;19.87;48.27;101528.75;5033908;28;45429;-72
2022/07/01 09:55:41;;;;;;;;;0.00;0.00;;;;;19.99;47.56;101542.44;5037283;28;45430;-72
2022/07/01 09:58:07;;;;;;;;;0.00;0.00;;;;;19.96;47.84;101529.09;5030997;28;45500;-72
2022/07/01 10:00:35;;;;;;;;;0.00;0.00;;;;;20.06;47.51;101545.66;5036010;28;45468;-72
2022/07/01 10:03:01;;;;;;;;;1.00;0.00;;;;;20.08;47.18;101551.88;5036397;28;46196;-72
2022/07/01 10:05:29;;;;;;;;;1.00;1.00;;;;;20.03;47.52;101536.81;5036709;28;45343;-72
2022/07/01 10:08:22;;;;;;;;;0.00;0.00;;;;;20.10;47.24;101541.81;5038087;28;45250;-72
2022/07/01 10:11:06;;;;;;;;;0.00;0.00;;;;;20.20;47.54;101546.66;5032461;28;45682;-72
2022/07/01 10:13:35;;;;;;;;;0.00;0.00;;;;;20.22;47.70;101542.03;5029357;28;45365;-72
2022/07/01 10:16:03;;;;;;;;;1.25;0.25;;;;;20.30;47.84;101539.75;5025989;28;45398;-72
2022/07/01 10:18:28;;;;;;;;;1.00;0.00;;;;;20.28;47.03;101537.13;5036837;28;45473;-72
2022/07/01 10:20:56;;;;;;;;;0.00;0.00;;;;;20.35;46.75;101551.19;5032057;28;45510;-72
2022/07/01 10:23:27;;;;;;;;;0.00;0.00;;;;;20.40;48.01;101550.88;5034502;28;46200;-72
2022/07/01 10:26:01;;;;;;;;;0.00;0.00;;;;;20.47;47.40;101554.97;5032755;28;45346;-72
2022/07/01 10:28:36;;;;;;;;;0.00;0.00;;;;;20.45;46.57;101541.50;5036568;28;45454;-72
2022/07/01 10:31:09;;;;;;;;;1.00;0.00;;;;;20.51;46.64;101545.66;5034629;28;45448;-72
2022/07/01 10:33:58;;;;;;;;;0.00;0.00;;;;;20.45;46.46;101540.66;5033813;28;45382;-71
2022/07/01 10:36:34;;;;;;;;;0.00;0.00;;;;;20.51;46.36;101545.66;5032119;28;45820;-70
2022/07/01 10:39:09;;;;;;;;;0.00;0.00;;;;;20.54;47.11;101551.78;5034944;28;45430;-71
2022/07/01 10:41:57;;;;;;;;;0.00;0.00;;;;;20.59;46.45;101547.91;5033926;28;45541;-71
2022/07/01 10:44:24;;;;;;;;;0.50;0.00;;;;;20.60;46.23;101536.97;5035693;28;45232;-71
2022/07/01 10:46:56;;;;;;;;;0.00;0.00;;;;;20.62;46.09;101543.16;5041313;28;45402;-71
2022/07/01 10:49:37;;;;;;;;;0.00;0.00;;;;;20.62;46.28;101543.16;5035458;28;45170;-71
2022/07/01 10:52:18;;;;;;;;;0.25;0.00;;;;;20.55;46.00;101539.97;5039540;28;45473;-71
2022/07/01 10:54:45;;;;;;;;;0.75;0.00;;;;;20.63;45.73;101549.50;5038218;28;46190;-71
2022/07/01 10:57:19;;;;;;;;;0.00;0.00;;;;;20.63;46.11;101552.22;5033280;28;45465;-71
2022/07/01 10:59:52;;;;;;;;;0.00;0.00;;;;;20.58;45.23;101540.75;5031053;28;45282;-71
2022/07/01 11:02:23;;;;;;;;;1.50;0.00;;;;;20.61;45.92;101536.00;5036358;28;45410;-71
2022/07/01 11:05:03;;;;;;;;;0.00;0.00;;;;;20.61;45.31;101538.69;5025533;28;45412;-71
2022/07/01 11:07:35;;;;;;;;;0.00;0.00;;;;;20.67;45.39;101549.22;5033021;28;45573;-71
2022/07/01 11:10:04;;;;;;;;;0.00;0.00;;;;;20.60;46.22;101534.25;5035446;28;45267;-71
2022/07/01 11:12:29;;;;;;;;;0.00;0.00;;;;;20.59;46.02;101546.06;5035226;28;45545;-71
2022/07/01 11:15:01;;;;;;;;;0.00;0.00;;;;;20.64;45.77;101559.38;5031807;28;46173;-71
2022/07/01 11:17:27;;;;;;;;;0.00;0.00;;;;;20.68;45.56;101560.94;5030611;28;45230;-72
2022/07/01 11:19:57;;;;;;;;;1.00;0.00;;;;;20.64;45.58;101546.69;5033038;28;45474;-71
2022/07/01 11:22:25;;;;;;;;;0.00;0.00;;;;;20.64;45.22;101545.81;5029772;28;45382;-72
2022/07/01 11:24:56;;;;;;;;;0.00;0.00;;;;;20.63;44.96;101544.97;5034038;28;46364;-72
2022/07/01 11:27:27;;;;;;;;;0.00;0.00;;;;;20.62;44.52;101542.31;5028380;28;45335;-72
2022/07/01 11:30:01;;;;;;;;;0.00;0.00;;;;;20.64;44.59;101529.56;5034805;28;45431;-71
2022/07/01 11:32:28;;;;;;;;;0.00;0.00;;;;;20.65;44.51;101531.31;5036626;28;45637;-71
2022/07/01 11:34:55;;;;;;;;;0.50;0.00;;;;;20.65;45.48;101515.91;5033322;28;46119;-71
2022/07/01 11:40:10;;;;;;;;;1.00;0.00;;;;;20.88;44.55;101538.88;5030029;28;45473;-71
2022/07/01 11:42:36;;;;;;;;;0.00;0.00;;;;;20.90;44.79;101538.78;5036988;28;45525;-71
2022/07/01 11:45:03;;;;;;;;;0.00;0.00;;;;;20.90;44.88;101541.50;5038208;28;45483;-71
2022/07/01 11:47:29;;;;;;;;;0.00;0.00;;;;;20.96;44.25;101540.22;5040158;28;45453;-71
2022/07/01 11:49:55;;;;;;;;;0.00;0.00;;;;;20.91;44.10;101525.09;5037692;28;45378;-71
2022/07/01 11:52:21;;;;;;;;;0.00;0.00;;;;;21.05;43.58;101539.66;5034331;28;45311;-71
2022/07/01 11:54:49;;;;;;;;;0.00;0.00;;;;;21.08;43.99;101540.31;5040165;28;46065;-71
2022/07/01 11:57:24;;;;;;;;;0.50;0.00;;;;;21.07;44.15;101538.56;5030032;28;45378;-72
2022/07/01 11:59:51;;;;;;;;;3.00;2.25;;;;;21.15;43.53;101551.66;5040189;28;45485;-72
2022/07/01 12:02:19;;;;;;;;;1.00;0.00;;;;;21.12;44.10;101534.66;5035137;28;45556;-71
2022/07/01 12:04:45;;;;;;;;;0.00;0.00;;;;;21.14;44.40;101546.31;5033511;28;45360;-71
2022/07/01 12:07:12;;;;;;;;;0.00;0.00;;;;;21.10;43.55;101537.50;5040371;28;45432;-72
2022/07/01 12:09:38;;;;;;;;;1.00;0.00;;;;;21.12;43.49;101542.81;5039983;28;45348;-72
2022/07/01 12:12:04;;;;;;;;;1.00;0.00;;;;;21.14;44.23;101541.75;5033100;28;45672;-71
2022/07/01 12:14:33;;;;;;;;;0.00;0.00;;;;;21.13;43.61;101550.84;5031816;28;46521;-72
2022/07/01 12:17:00;;;;;;;;;0.00;0.00;;;;;21.09;44.55;101547.47;5038799;28;45371;-72
2022/07/01 12:19:38;;;;;;;;;0.00;0.00;;;;;21.14;43.93;101549.91;5039913;28;45232;-71
2022/07/01 12:22:08;;;;;;;;;1.00;0.00;;;;;21.13;43.30;101547.28;5039047;28;45338;-72
2022/07/01 12:24:33;;;;;;;;;0.00;0.00;;;;;21.12;44.04;101545.53;5037158;28;45332;-71
2022/07/01 12:26:59;;;;;;;;;0.00;0.00;;;;;21.15;43.21;101548.94;5039579;28;45380;-72